Time;durP1;ratioP1;P1;durP2;ratioP2;P2;SDS_P1;SDS_P2;PMS_P1;PMS_P2;Temp;Humidity;BMP_temperature;BMP_pressure;BME280_temperature;BME280_humidity;BME280_pressure;Samples;Min_cycle;Max_cycle;Signal;HPM_P1;HPM_P2
2021/12/04 07:29:36;;;;;;;;;;;;;;;5.01;68.13;99457.06;4965283;23;2254;-96
2021/12/04 07:32:04;;;;;;;;;;;;;;;5.01;68.16;99462.38;4918341;29;1412;-96
2021/12/04 07:34:32;;;;;;;;;;;;;;;4.98;68.23;99462.81;4940612;29;1240;-96
2021/12/04 07:40:05;;;;;;;;;;;;;;;4.99;68.33;99461.75;4918824;29;1183;-96
2021/12/04 07:46:02;;;;;;;;;;;;;;;4.98;68.33;99463.63;4950533;29;1893;-96
2021/12/04 07:48:34;;;;;;;;;;;;;;;4.97;68.09;99463.81;4944715;29;1308;-96
2021/12/04 07:51:23;;;;;;;;;;;;;;;;;;;;;
2021/12/04 07:53:52;;;;;;;;;;;;;;;4.98;68.13;99474.28;4933375;29;1600;-96
2021/12/04 07:56:59;;;;;;;;;;;;;;;4.98;68.40;99476.97;4949534;29;1123;-96
2021/12/04 08:02:16;;;;;;;;;;;;;;;4.98;68.07;99476.16;4949132;29;3864;-96
2021/12/04 08:04:50;;;;;;;;;;;;;;;4.95;68.27;99481.91;4972621;29;1229;-96
2021/12/04 08:07:20;;;;;;;;;;;;;;;4.95;68.04;99487.25;4972656;29;1264;-96
2021/12/04 08:09:49;;;;;;;;;;;;;;;4.98;68.09;99497.50;4950672;29;2067;-96
2021/12/04 08:12:18;;;;;;;;;;;;;;;4.93;68.24;99492.78;4937296;29;1673;-96
2021/12/04 08:14:46;;;;;;;;;;;;;;;4.93;68.01;99500.78;4952143;29;1372;-96
2021/12/04 08:20:12;;;;;;;;;;;;;;;4.92;68.15;99512.50;4938640;29;2594;-96
2021/12/04 08:22:40;;;;;;;;;;;;;;;4.93;67.92;99510.63;4962352;29;1359;-96
2021/12/04 08:25:08;;;;;;;;;;;;;;;4.91;67.97;99521.53;4945093;29;1626;-96
2021/12/04 08:27:34;;;;;;;;;;;;;;;4.93;68.15;99521.31;4960271;29;1299;-96
2021/12/04 08:30:01;;;;;;;;;;;;;;;4.90;68.20;99522.53;4948345;28;2043;-96
2021/12/04 08:32:27;;;;;;;;;;;;;;;4.91;68.18;99520.69;4949084;29;1315;-96
2021/12/04 08:34:57;;;;;;;;;;;;;;;4.89;68.20;99522.75;4940581;29;4154;-96
2021/12/04 08:40:09;;;;;;;;;;;;;;;4.91;68.07;99523.34;4940669;29;1593;-96
2021/12/04 08:42:36;;;;;;;;;;;;;;;4.96;68.10;99536.91;4938626;29;1285;-96
2021/12/04 08:48:03;;;;;;;;;;;;;;;4.94;68.12;99530.94;4933412;28;1460;-96
2021/12/04 08:50:50;;;;;;;;;;;;;;;4.94;68.11;99538.94;4943157;29;2526;-96
2021/12/04 08:53:17;;;;;;;;;;;;;;;4.91;68.04;99545.56;4941366;29;1924;-96
2021/12/04 08:55:45;;;;;;;;;;;;;;;4.89;68.10;99544.09;4941680;29;2018;-96
2021/12/04 08:58:12;;;;;;;;;;;;;;;4.90;68.23;99559.91;4947028;29;2233;-96
2021/12/04 09:00:40;;;;;;;;;;;;;;;4.91;68.32;99571.38;4954278;29;3303;-96
2021/12/04 09:03:07;;;;;;;;;;;;;;;4.88;68.27;99567.31;4960846;29;1324;-96
2021/12/04 09:05:37;;;;;;;;;;;;;;;4.89;68.36;99563.59;4923354;29;3127;-96
2021/12/04 09:08:06;;;;;;;;;;;;;;;4.89;68.22;99571.59;4932496;29;1518;-96
2021/12/04 09:10:34;;;;;;;;;;;;;;;4.90;68.20;99572.44;4948764;29;1192;-96
2021/12/04 09:13:01;;;;;;;;;;;;;;;4.92;68.34;99576.53;4931887;29;1687;-96
2021/12/04 09:15:32;;;;;;;;;;;;;;;4.95;68.15;99592.13;4948467;29;1846;-96
2021/12/04 09:18:00;;;;;;;;;;;;;;;4.90;68.23;99596.44;4929234;29;1425;-96
2021/12/04 09:20:32;;;;;;;;;;;;;;;4.87;68.20;99600.34;4931057;29;3275;-96
2021/12/04 09:23:05;;;;;;;;;;;;;;;4.84;68.40;99594.59;4923084;29;1378;-96
2021/12/04 09:25:33;;;;;;;;;;;;;;;4.86;68.37;99608.56;4978427;23;4205;-96
2021/12/04 09:28:14;;;;;;;;;;;;;;;4.85;68.29;99604.22;4951807;29;2294;-96
